Flight Track Log - Related Links

Times and Time Zones

All times are in EDT time to prevent confusion due to time zone crossing. See the DAL571 flight status page for this flight to view local times or setup timezone preferences in your user account.

Time Position Orientation Groundspeed Altitude Reporting Facility
EDT Latitude Longitude Course Direction KTS MPH feet Rate Location/Type
Thu 10:39:38 AM 33.6167 -84.3500 145° Southeast 202 232 4,000  Level Atlanta TRACON
Thu 10:41:00 AM 33.3499 -84.2331 140° Southeast  Level FlightAware Approximate
Thu 10:41:46 AM 33.5186 -84.2781 149° Southeast 276 318 9,400  Level Atlanta Center
Thu 10:42:00 AM 33.2491 -84.1322 140° Southeast  Level FlightAware Approximate
Thu 10:42:46 AM 33.4308 -84.2803 181° South 276 318 12,200  Level Atlanta Center
Thu 10:43:00 AM 33.1482 -84.0314 140° Southeast  Level FlightAware Approximate
Thu 10:43:46 AM 33.3475 -84.2428 159° South 304 350 13,400  Level Atlanta Center
Thu 10:44:00 AM 33.0496 -83.9384 145° Southeast  Level FlightAware Approximate
Thu 10:44:46 AM 33.2639 -84.1606 141° Southeast 330 380 15,500  Level Atlanta Center
Thu 10:45:00 AM 32.9420 -83.8484 145° Southeast  Level FlightAware Approximate
Thu 10:45:46 AM 33.1786 -84.0736 140° Southeast 374 430 17,700  Level Atlanta Center
Thu 10:46:46 AM 33.0908 -83.9842 140° Southeast 398 458 19,300 1,750 Climbing Atlanta Center
Thu 10:47:46 AM 32.9947 -83.9025 145° Southeast 419 482 21,200 1,800 Climbing Atlanta Center
Thu 10:48:46 AM 32.8922 -83.8186 145° Southeast 430 495 22,900 1,700 Climbing Atlanta Center
Thu 10:49:46 AM 32.7897 -83.7300 144° Southeast 450 518 24,600 1,650 Climbing Atlanta Center
Thu 10:50:46 AM 32.6831 -83.6464 147° Southeast 450 518 26,200 1,373 Climbing Atlanta Center
Thu 10:52:32 AM 32.4886 -83.4936 146° Southeast 463 533 28,400 1,410 Climbing Jacksonville Center
Thu 10:53:32 AM 32.3764 -83.4042 146° Southeast 469 540 30,100 1,388 Climbing Jacksonville Center
Thu 10:54:33 AM 32.2764 -83.3275 147° Southeast 475 547 31,200 1,000 Climbing Jacksonville Center
Thu 10:55:32 AM 32.1639 -83.2411 147° Southeast 480 552 32,100 1,008 Climbing Jacksonville Center
Thu 10:56:32 AM 32.0494 -83.1525 147° Southeast 485 558 33,200 1,350 Climbing Jacksonville Center
Thu 10:57:32 AM 31.9325 -83.0639 147° Southeast 485 558 34,800 1,400 Climbing Jacksonville Center
Thu 10:58:32 AM 31.8219 -82.9806 147° Southeast 490 564 36,000 1,240 Climbing Jacksonville Center
Thu 10:59:33 AM 31.7092 -82.8925 146° Southeast 485 558 37,300 1,000 Climbing Jacksonville Center
Thu 11:00:32 AM 31.6006 -82.8097 147° Southeast 473 544 38,000 353 Climbing Jacksonville Center
Thu 11:01:32 AM 31.4983 -82.7294 146° Southeast 462 532 38,000  Level Jacksonville Center
Thu 11:02:32 AM 31.3897 -82.6467 147° Southeast 459 528 38,000  Level Jacksonville Center
Thu 11:03:32 AM 31.2808 -82.5742 150° Southeast 459 528 38,000  Level Jacksonville Center
Thu 11:04:32 AM 31.1719 -82.4894 146° Southeast 459 528 38,000  Level Jacksonville Center
Thu 11:05:32 AM 31.0611 -82.4075 148° Southeast 464 534 38,000  Level Jacksonville Center
Thu 11:06:32 AM 30.9500 -82.3208 146° Southeast 469 540 38,000  Level Jacksonville Center
Thu 11:07:32 AM 30.8389 -82.2392 148° Southeast 474 545 38,000  Level Jacksonville Center
Thu 11:08:32 AM 30.7278 -82.1578 148° Southeast 474 545 38,000  Level Jacksonville Center
Thu 11:09:32 AM 30.6189 -82.0767 147° Southeast 474 545 38,000  Level Jacksonville Center
Thu 11:10:32 AM 30.4969 -81.9789 145° Southeast 481 554 38,000  Level Jacksonville Center
Thu 11:11:32 AM 30.3836 -81.8956 148° Southeast 483 556 38,000  Level Jacksonville Center
Thu 11:12:32 AM 30.2744 -81.8175 148° Southeast 483 556 38,000  Level Jacksonville Center
Thu 11:13:32 AM 30.1653 -81.7369 147° Southeast 477 549 38,000  Level Jacksonville Center
Thu 11:14:32 AM 30.0539 -81.6592 149° Southeast 477 549 38,000  Level Jacksonville Center
Thu 11:15:33 AM 29.9444 -81.5789 148° Southeast 477 549 38,000  Level Jacksonville Center
Thu 11:16:32 AM 29.8331 -81.4992 148° Southeast 477 549 38,000  Level Jacksonville Center
Thu 11:17:32 AM 29.7214 -81.4194 148° Southeast 477 549 38,000  Level Jacksonville Center
Thu 11:18:32 AM 29.6119 -81.3397 148° Southeast 477 549 38,000  Level Jacksonville Center
Thu 11:19:32 AM 29.5003 -81.2606 148° Southeast 477 549 38,000  Level Jacksonville Center
Thu 11:20:32 AM 29.3928 -81.1789 146° Southeast 477 549 38,000  Level Jacksonville Center
Thu 11:22:54 AM 29.1600 -80.9628 141° Southeast 493 567 38,000  Level Miami Center
Thu 11:23:54 AM 29.0628 -80.8547 136° Southeast 493 567 38,000  Level Miami Center
Thu 11:24:54 AM 28.9658 -80.7467 136° Southeast 493 567 38,000  Level Miami Center
Thu 11:25:54 AM 28.8606 -80.6269 135° Southeast 493 567 38,000  Level Miami Center
Thu 11:26:54 AM 28.7842 -80.5156 128° Southeast 493 567 38,000  Level Miami Center
Thu 11:27:54 AM 28.7061 -80.3850 124° Southeast 493 567 38,000  Level Miami Center
Thu 11:28:54 AM 28.6197 -80.2406 124° Southeast 493 567 38,000  Level Miami Center
Thu 11:29:54 AM 28.5394 -80.1081 125° Southeast 493 567 38,000  Level Miami Center
Thu 11:30:54 AM 28.4608 -79.9783 125° Southeast 493 567 38,000  Level Miami Center
Thu 11:31:54 AM 28.3903 -79.8631 125° Southeast 493 567 38,000  Level Miami Center
Thu 11:32:54 AM 28.3117 -79.7314 124° Southeast 493 567 38,000  Level Miami Center
Thu 11:33:54 AM 28.2328 -79.6044 125° Southeast 493 567 38,000  Level Miami Center
Thu 11:34:54 AM 28.1558 -79.4753 124° Southeast 493 567 38,000  Level Miami Center
Thu 11:35:54 AM 28.0767 -79.3464 125° Southeast 493 567 38,000  Level Miami Center
Thu 11:36:54 AM 28.0014 -79.2225 125° Southeast 493 567 38,000  Level Miami Center
Thu 11:37:54 AM 27.9178 -79.0939 126° Southeast 499 574 38,000  Level Miami Center
Thu 11:38:54 AM 27.8344 -78.9536 124° Southeast 499 574 38,000  Level Miami Center
Thu 11:39:54 AM 27.7547 -78.8253 125° Southeast 499 574 38,000 250 Level Miami Center
Thu 11:40:54 AM 27.6750 -78.6997 126° Southeast 505 581 38,500 450 Climbing Miami Center
Thu 11:41:54 AM 27.6033 -78.5792 124° Southeast 505 581 38,900 250 Climbing Miami Center
Thu 11:42:54 AM 27.5236 -78.4419 123° Southeast 511 588 39,000 50 Climbing Miami Center
Thu 11:43:54 AM 27.4456 -78.3075 123° Southeast 511 588 39,000  Level Miami Center
Thu 11:44:54 AM 27.3611 -78.1756 126° Southeast 517 595 39,000  Level Miami Center
Thu 11:45:54 AM 27.2850 -78.0461 123° Southeast 512 589 39,000  Level Miami Center
Thu 11:46:54 AM 27.1961 -77.9214 129° Southeast 516 594 39,000  Level Miami Center
Thu 11:47:54 AM 27.1072 -77.7944 128° Southeast 518 596 39,000  Level Miami Center
Thu 11:48:54 AM 27.0119 -77.6725 131° Southeast 512 589 39,000  Level Miami Center
Thu 11:49:54 AM 26.9164 -77.5600 134° Southeast 499 574 39,000  Level Miami Center
Thu 11:50:54 AM 26.8061 -77.4522 139° Southeast 489 563 39,000  Level Miami Center
Thu 11:51:54 AM 26.7042 -77.3517 139° Southeast 489 563 39,000  Level Miami Center
Thu 11:52:54 AM 26.5978 -77.2583 142° Southeast 489 563 39,000  Level Miami Center
Thu 11:53:54 AM 26.4894 -77.1697 144° Southeast 489 563 39,000  Level Miami Center
Thu 11:54:54 AM 26.3831 -77.0861 145° Southeast 476 548 39,000  Level Miami Center
Thu 11:55:54 AM 26.2933 -76.9722 131° Southeast 467 537 39,000  Level Miami Center
Thu 11:56:54 AM 26.2119 -76.8378 124° Southeast 491 565 39,000  Level Miami Center
Thu 11:57:54 AM 26.1408 -76.7175 123° Southeast 503 579 39,000  Level Miami Center
Thu 11:58:54 AM 26.0675 -76.5858 122° Southeast 510 587 39,000  Level Miami Center
Thu 11:59:54 AM 25.9875 -76.4450 122° Southeast 517 595 39,000  Level Miami Center
Thu 12:00:54 PM 25.9161 -76.3133 121° Southeast 522 601 39,000  Level Miami Center
Thu 12:01:54 PM 25.8361 -76.1800 124° Southeast 517 595 39,000  Level Miami Center
Thu 12:02:54 PM 25.7581 -76.0464 123° Southeast 523 602 39,000  Level Miami Center
Thu 12:03:54 PM 25.6800 -75.9086 122° Southeast 517 595 39,000  Level Miami Center
Thu 12:04:54 PM 25.6039 -75.7781 123° Southeast 517 595 39,000  Level Miami Center
Thu 12:05:54 PM 25.5256 -75.6450 123° Southeast 517 595 39,000  Level Miami Center
Thu 12:06:54 PM 25.4492 -75.5100 122° Southeast 517 595 39,000  Level Miami Center
Thu 12:07:54 PM 25.3664 -75.3731 124° Southeast 511 588 39,000  Level Miami Center
Thu 12:08:54 PM 25.2917 -75.2406 122° Southeast 505 581 39,000  Level Miami Center
Thu 12:09:54 PM 25.2214 -75.1222 123° Southeast 505 581 39,000  Level Miami Center
Thu 12:10:54 PM 25.1444 -74.9900 123° Southeast 505 581 39,000  Level Miami Center
Thu 12:11:54 PM 25.0656 -74.8558 123° Southeast 505 581 39,000  Level Miami Center
Thu 12:12:54 PM 24.9906 -74.7289 123° Southeast 505 581 39,000  Level Miami Center
Thu 12:13:54 PM 24.9111 -74.5950 123° Southeast 505 581 39,000  Level Miami Center
Thu 12:14:54 PM 24.8361 -74.4681 123° Southeast 505 581 39,000  Level Miami Center
Thu 12:15:54 PM 24.7567 -74.3369 124° Southeast 505 581 39,000  Level Miami Center
Thu 12:16:54 PM 24.6769 -74.2036 123° Southeast 505 581 39,000  Level Miami Center
Thu 12:17:54 PM 24.6014 -74.0775 123° Southeast 505 581 39,000  Level Miami Center
Thu 12:18:54 PM 24.5217 -73.9467 124° Southeast 506 582 39,000  Level Miami Center
Thu 12:19:54 PM 24.4439 -73.8161 123° Southeast 506 582 39,000  Level Miami Center
Thu 12:20:54 PM 24.3639 -73.6858 124° Southeast 506 582 39,000  Level Miami Center
Thu 12:21:54 PM 24.2858 -73.5556 123° Southeast 506 582 39,000  Level Miami Center
Thu 12:22:54 PM 24.2056 -73.4258 124° Southeast 506 582 39,000  Level Miami Center
Thu 12:23:54 PM 24.1272 -73.2958 123° Southeast 506 582 39,000  Level Miami Center
Thu 12:24:54 PM 24.0489 -73.1661 123° Southeast 506 582 39,000  Level Miami Center
Thu 12:25:54 PM 23.9683 -73.0389 125° Southeast 499 574 39,000  Level Miami Center
Thu 12:26:54 PM 23.8897 -72.9119 124° Southeast 505 581 39,000  Level Miami Center
Thu 12:27:54 PM 23.8153 -72.7847 123° Southeast 500 575 39,000  Level Miami Center
Thu 12:28:54 PM 23.7325 -72.6581 126° Southeast 500 575 39,000  Level Miami Center
Thu 12:29:54 PM 23.6558 -72.5292 123° Southeast 506 582 39,000  Level Miami Center
Thu 12:30:54 PM 23.5767 -72.4006 124° Southeast 511 588 39,000  Level Miami Center
Thu 12:31:54 PM 23.4978 -72.2697 123° Southeast 511 588 39,000  Level Miami Center
Thu 12:32:54 PM 23.4167 -72.1461 126° Southeast 511 588 39,000  Level Miami Center
Thu 12:33:54 PM 23.3372 -72.0178 124° Southeast 511 588 39,000  Level Miami Center
Thu 12:34:54 PM 23.2600 -71.8919 124° Southeast 499 574 39,000  Level Miami Center
Thu 12:35:54 PM 23.1786 -71.7686 126° Southeast 504 580 39,000  Level Miami Center
Thu 12:36:54 PM 23.0992 -71.6386 124° Southeast 504 580 39,000  Level Miami Center
Thu 12:37:54 PM 23.0194 -71.5111 124° Southeast 504 580 39,000  Level Miami Center
Thu 12:38:54 PM 22.9419 -71.3881 124° Southeast 504 580 39,000  Level Miami Center
Thu 12:39:54 PM 22.8644 -71.2631 124° Southeast 504 580 39,000  Level Miami Center
Thu 12:40:54 PM 22.7825 -71.1406 126° Southeast 504 580 39,000  Level Miami Center
Thu 12:41:54 PM 22.7025 -71.0114 124° Southeast 504 580 39,000  Level Miami Center
Thu 12:42:54 PM 22.6247 -70.8911 125° Southeast 499 574 39,000  Level Miami Center
Thu 12:43:54 PM 22.5447 -70.7647 124° Southeast 499 574 39,000  Level Miami Center
Thu 12:44:54 PM 22.4644 -70.6406 125° Southeast 505 581 39,000  Level Miami Center
Thu 12:45:54 PM 22.3797 -70.5078 125° Southeast 499 574 39,000  Level Miami Center
Thu 12:46:54 PM 22.2969 -70.3794 125° Southeast 505 581 39,000  Level Miami Center
Thu 12:47:54 PM 22.2167 -70.2558 125° Southeast 505 581 39,000  Level Miami Center
Thu 12:48:54 PM 22.1364 -70.1344 126° Southeast 505 581 39,000  Level Miami Center
Thu 12:49:54 PM 22.0578 -70.0108 124° Southeast 499 574 39,000  Level Miami Center
Thu 12:50:54 PM 21.9750 -69.8856 125° Southeast 505 581 39,000  Level Miami Center
Thu 12:51:54 PM 21.8942 -69.7625 125° Southeast 505 581 39,000  Level Miami Center
Thu 12:52:54 PM 21.8178 -69.6417 124° Southeast 500 575 39,000  Level Miami Center
Thu 12:53:54 PM 21.7367 -69.5189 125° Southeast 500 575 39,000  Level Miami Center
Thu 12:54:54 PM 21.6597 -69.3936 123° Southeast 506 582 39,000  Level Miami Center
Thu 12:55:54 PM 21.5789 -69.2714 125° Southeast 501 577 39,000  Level Miami Center
Thu 12:56:54 PM 21.4936 -69.1514 127° Southeast 501 577 39,000  Level Miami Center
Thu 12:57:54 PM 21.4208 -69.0289 123° Southeast 501 577 39,000  Level Miami Center
Thu 12:58:54 PM 21.3394 -68.9047 125° Southeast 501 577 39,000  Level Miami Center
Thu 12:59:54 PM 21.2517 -68.7831 128° Southeast 507 583 39,000  Level Miami Center
Thu 01:00:54 PM 21.1681 -68.6594 126° Southeast 507 583 39,000  Level Miami Center
Thu 01:01:54 PM 21.0908 -68.5353 124° Southeast 502 578 39,000  Level Miami Center
Thu 01:02:54 PM 21.0092 -68.4139 126° Southeast 502 578 39,000  Level Miami Center
Thu 01:03:54 PM 20.9294 -68.2883 124° Southeast 502 578 39,000  Level Miami Center
Thu 01:04:54 PM 20.8456 -68.1672 127° Southeast 502 578 39,000  Level Miami Center
Thu 01:05:54 PM 20.7597 -68.0489 128° Southeast 507 583 39,000  Level Miami Center
Thu 01:06:54 PM 20.6739 -67.9306 128° Southeast 512 589 39,000  Level Miami Center
Thu 01:07:54 PM 20.5839 -67.8128 129° Southeast 512 589 39,000  Level Miami Center
Thu 01:08:54 PM 20.4939 -67.6972 130° Southeast 512 589 39,000  Level Miami Center
Thu 01:09:34 PM 20.4333 -67.6167 129° Southeast 500 575 39,000  Level San Juan Center
Thu 01:10:34 PM 20.3333 -67.5000 132° Southeast 510 587 39,000  Level San Juan Center
Thu 01:11:34 PM 20.2500 -67.3833 127° Southeast 500 575 39,000  Level San Juan Center
Thu 01:12:34 PM 20.1500 -67.2667 132° Southeast 500 575 39,000  Level San Juan Center
Thu 01:13:34 PM 20.0667 -67.1500 127° Southeast 500 575 39,000  Level San Juan Center
Thu 01:14:35 PM 19.9833 -67.0333 127° Southeast 500 575 39,000  Level San Juan Center
Thu 01:15:35 PM 19.9000 -66.9167 127° Southeast 510 587 39,000  Level San Juan Center
Thu 01:16:36 PM 19.8000 -66.8167 137° Southeast 500 575 39,000  Level San Juan Center
Thu 01:17:36 PM 19.7167 -66.7000 127° Southeast 500 575 39,000 -600 Level San Juan Center
Thu 01:18:36 PM 19.6333 -66.5833 127° Southeast 500 575 37,800 -1,500 Descending San Juan Center
Thu 01:19:36 PM 19.5333 -66.4667 132° Southeast 510 587 36,000 -2,033 Descending San Juan Center
Thu 01:20:37 PM 19.4500 -66.3500 127° Southeast 510 587 33,700 -2,529 Descending San Juan Center
Thu 01:21:37 PM 19.3500 -66.2333 132° Southeast 510 587 30,900 -3,050 Descending San Juan Center
Thu 01:22:37 PM 19.2667 -66.1167 127° Southeast 500 575 27,600 -3,174 Descending San Juan Center
Thu 01:23:38 PM 19.1667 -66.0000 132° Southeast 510 587 24,500 -3,025 Descending San Juan Center
Thu 01:24:38 PM 19.0833 -65.8833 127° Southeast 490 564 21,500 -2,826 Descending San Juan Center
Thu 01:25:39 PM 19.0000 -65.7667 127° Southeast 460 529 18,800 -2,430 Descending San Juan Center
Thu 01:26:39 PM 18.9167 -65.6833 137° Southeast 440 506 16,600 -2,300 Descending San Juan Center
Thu 01:27:39 PM 18.8333 -65.5833 131° Southeast 420 483 14,200 -2,750 Descending San Juan Center
Thu 01:28:39 PM 18.7333 -65.5500 162° South 380 437 11,100 -3,322 Descending San Juan Center
Thu 01:29:40 PM 18.6333 -65.5333 171° South 370 426 7,500 -3,273 Descending San Juan Center
Thu 01:30:40 PM 18.5333 -65.5167 171° South 360 414 4,500 -2,200 Descending San Juan Center
Thu 01:31:40 PM 18.4500 -65.4667 150° Southeast 320 368 3,100 -843 Descending San Juan Center
Thu 01:32:41 PM 18.3833 -65.4167 145° Southeast 290 334 2,800 -149 Descending San Juan Center
Thu 01:33:41 PM 18.3500 -65.3667 125° Southeast 240 276 2,800  Level San Juan Center
Thu 01:34:41 PM 18.3000 -65.3167 136° Southeast 250 288 2,800  Level San Juan Center
Thu 01:35:42 PM 18.2833 -65.2333 102° East 230 265 2,800  Level San Juan Center
Thu 01:36:42 PM 18.3000 -65.1833 71° East 240 276 2,800 -100 Level San Juan Center
Thu 01:37:42 PM 18.3167 -65.1167 75° East 210 242 2,600 -545 Descending San Juan Center
Thu 01:38:43 PM 18.3333 -65.0667 71° East 170 196 1,700 -744 Descending San Juan Center
Thu 01:39:43 PM 18.3333 -65.0333 90° East 120 138 1,100 -650 Descending San Juan Center
Thu 01:40:43 PM 18.3333 -64.9833 90° East 130 150 400 -700 Descending San Juan Center

Login

Don't have an account? Register now (free) for customized features, flight alerts, and more!